createdAt,value
2022-09-20T06:22:11.371Z,10.8
2022-09-20T06:23:24.393Z,10.8
2022-09-20T06:24:37.385Z,10.8
2022-09-20T06:25:50.420Z,10.9
2022-09-20T06:27:03.343Z,10.9
2022-09-20T06:28:16.458Z,10.9
2022-09-20T06:29:29.307Z,10.9
2022-09-20T06:58:41.559Z,11.2
2022-09-20T06:59:54.369Z,11.2
2022-09-20T07:01:07.405Z,11.3
2022-09-20T07:02:20.454Z,11.3
2022-09-20T07:03:33.567Z,11.3
2022-09-20T07:04:46.387Z,11.3
2022-09-20T07:05:59.445Z,11.3
2022-09-20T07:07:12.454Z,11.3
2022-09-20T07:08:25.598Z,11.4
2022-09-20T07:09:38.321Z,11.4
2022-09-20T07:10:51.704Z,11.5
2022-09-20T07:12:04.371Z,11.6
2022-09-20T07:13:17.909Z,11.7
2022-09-20T07:14:30.912Z,11.7
2022-09-20T07:15:43.398Z,11.8
2022-09-20T07:16:56.261Z,11.9
2022-09-20T07:18:09.791Z,11.9
2022-09-20T07:19:22.474Z,12.1
2022-09-20T07:20:35.414Z,12.1
2022-09-20T07:21:48.350Z,12.2
2022-09-20T07:23:01.495Z,12.4
2022-09-20T07:24:14.410Z,12.4
2022-09-20T07:25:27.422Z,12.6
2022-09-20T07:26:40.902Z,12.7
2022-09-20T07:27:53.342Z,12.8
2022-09-20T07:29:06.474Z,13
2022-09-20T07:30:19.270Z,12.9
2022-09-20T07:31:32.765Z,13.1
2022-09-20T07:32:45.500Z,13.1
2022-09-20T07:33:58.361Z,13.2
2022-09-20T07:35:11.442Z,13.4
2022-09-20T07:36:24.386Z,13.4
2022-09-20T07:37:37.452Z,13.5
2022-09-20T07:38:50.509Z,13.5
2022-09-20T07:40:03.342Z,13.6
2022-09-20T07:41:16.487Z,13.6
2022-09-20T07:42:29.403Z,13.7
2022-09-20T07:43:42.512Z,13.7
2022-09-20T07:44:55.417Z,13.9
2022-09-20T07:46:08.926Z,13.9
2022-09-20T07:47:21.397Z,13.9
2022-09-20T07:48:34.419Z,13.9
2022-09-20T07:49:47.468Z,13.9
2022-09-20T07:51:00.589Z,13.9
2022-09-20T07:52:13.405Z,13.9
2022-09-20T07:53:26.382Z,14.1
2022-09-20T07:54:39.708Z,14.1
2022-09-20T07:55:52.355Z,14
2022-09-20T07:57:05.374Z,14.1
2022-09-20T07:58:18.584Z,14.3
2022-09-20T07:59:31.460Z,14.4
2022-09-20T14:37:22.335Z,17.3
2022-09-20T14:43:27.639Z,17.3
2022-09-20T14:45:53.178Z,17.3
2022-09-20T14:48:19.041Z,17.1
2022-09-20T14:50:45.538Z,17.1
2022-09-20T14:53:11.272Z,17.1
2022-09-20T14:54:24.271Z,17.1
2022-09-20T14:55:37.704Z,17.1
2022-09-20T14:56:50.271Z,17.1
2022-09-20T14:58:03.270Z,17.1
2022-09-20T14:59:16.118Z,17.1
2022-09-20T15:00:29.056Z,17
2022-09-20T15:01:42.297Z,17
2022-09-20T15:02:55.270Z,17
2022-09-20T15:04:08.686Z,17
2022-09-20T15:05:21.271Z,17
2022-09-20T15:06:34.274Z,17
2022-09-20T15:07:47.330Z,16.9
2022-09-20T15:09:00.267Z,16.8
2022-09-20T15:10:13.256Z,16.8
2022-09-20T15:11:26.256Z,16.8
2022-09-20T15:12:39.273Z,16.8
2022-09-20T15:13:52.225Z,16.8
2022-09-20T15:15:05.294Z,16.7
2022-09-20T15:16:18.310Z,16.7
2022-09-20T15:17:31.406Z,16.7
2022-09-20T15:18:44.273Z,16.7
2022-09-20T15:19:57.618Z,16.7
2022-09-20T15:21:10.341Z,16.7
2022-09-20T15:22:23.187Z,16.7
2022-09-20T15:23:36.272Z,16.6
2022-09-20T15:24:49.133Z,16.5
2022-09-20T15:26:02.471Z,16.5
2022-09-20T15:27:15.583Z,16.6
2022-09-20T15:28:28.287Z,16.3
2022-09-20T15:29:41.409Z,16.3
2022-09-20T15:58:53.240Z,15.3
2022-09-20T16:07:24.120Z,15.1
2022-09-20T16:12:16.741Z,14.9
2022-09-20T16:17:08.484Z,14.9
2022-09-20T16:18:21.334Z,14.9
2022-09-20T16:19:34.139Z,14.9
2022-09-20T16:20:47.382Z,14.9
2022-09-20T16:22:00.282Z,14.9
2022-09-20T16:23:13.247Z,14.9
2022-09-20T16:24:26.282Z,14.9
2022-09-20T16:25:39.222Z,14.9
2022-09-20T16:26:52.734Z,14.8
2022-09-20T16:31:43.999Z,14.8
2022-09-20T16:35:23.975Z,14.7
2022-09-20T16:36:36.159Z,14.7
2022-09-20T16:40:15.723Z,14.6
2022-09-20T16:53:38.271Z,14.6
2022-09-20T16:54:51.299Z,14.6
2022-09-20T16:59:43.273Z,14.4
2022-09-20T17:22:50.329Z,14.3
2022-09-20T17:24:03.613Z,14.3
2022-09-20T17:30:08.274Z,14.2
2022-09-20T17:31:21.343Z,14.2
2022-09-20T17:32:34.301Z,14.2
2022-09-20T17:33:47.151Z,14.2
2022-09-20T17:35:00.390Z,14.2
2022-09-20T17:36:13.329Z,14.2
2022-09-20T17:37:26.127Z,14.1
2022-09-20T17:38:39.469Z,14.1
2022-09-20T17:39:52.325Z,14.1
2022-09-20T17:41:05.275Z,14.1
2022-09-20T17:42:18.254Z,14.1
2022-09-20T17:43:31.615Z,14.1
2022-09-20T17:44:44.379Z,14.1
2022-09-20T17:45:57.607Z,14.1
2022-09-20T17:47:10.297Z,14.1
2022-09-20T17:48:23.612Z,13.9
2022-09-20T17:49:36.148Z,13.9
2022-09-20T17:50:49.289Z,13.9
2022-09-20T17:52:02.299Z,13.9
2022-09-20T17:53:15.367Z,13.9
2022-09-20T17:54:28.275Z,13.9
2022-09-20T17:55:41.251Z,13.8
2022-09-20T17:56:54.260Z,13.8
2022-09-20T17:58:07.259Z,13.8
2022-09-20T17:59:20.344Z,13.7
2022-09-20T18:00:33.242Z,13.6
2022-09-20T18:01:46.272Z,13.6
2022-09-20T18:03:02.757Z,13.6
2022-09-20T18:04:11.988Z,13.5
2022-09-20T18:05:25.312Z,13.5
2022-09-20T18:06:38.537Z,13.4
2022-09-20T18:07:51.431Z,13.4
2022-09-20T18:09:04.262Z,13.4
2022-09-20T18:10:17.333Z,13.4
2022-09-20T18:11:30.257Z,13.2
2022-09-20T18:12:43.272Z,13.3
2022-09-20T18:13:56.239Z,13.3
2022-09-20T18:15:09.252Z,13.1
2022-09-20T18:16:22.295Z,13.1
2022-09-20T18:17:35.307Z,12.9
2022-09-20T18:18:48.256Z,12.9
2022-09-20T18:20:01.632Z,13
2022-09-20T18:21:14.260Z,12.9
2022-09-20T18:22:26.995Z,12.9
2022-09-20T18:23:40.574Z,12.7
2022-09-20T18:24:53.162Z,12.7
2022-09-20T18:27:18.954Z,12.6
2022-09-20T18:28:32.642Z,12.6
2022-09-20T18:30:58.806Z,12.4
2022-09-20T18:33:24.104Z,12.3
2022-09-20T18:41:55.556Z,11.9
2022-09-20T18:43:08.542Z,11.9
2022-09-20T18:44:21.080Z,11.8
2022-09-20T18:46:47.157Z,11.8
2022-09-20T18:49:13.122Z,11.7
2022-09-20T18:50:26.295Z,11.7
2022-09-20T18:51:39.882Z,11.6
2022-09-20T18:54:05.291Z,11.4
2022-09-20T19:14:46.103Z,10.8
2022-09-20T19:19:38.448Z,10.7
2022-09-20T19:20:51.261Z,10.7
2022-09-20T19:22:04.220Z,10.6
2022-09-20T19:23:17.262Z,10.5
2022-09-20T19:24:30.135Z,10.5
2022-09-20T19:25:43.229Z,10.5
2022-09-20T19:26:56.608Z,10.5
2022-09-20T19:28:09.211Z,10.6
2022-09-20T19:29:22.243Z,10.4
2022-09-20T19:30:35.314Z,10.4
2022-09-20T19:31:48.418Z,10.4
2022-09-20T19:33:01.266Z,10.4
2022-09-20T19:34:14.606Z,10.3
2022-09-20T19:35:27.373Z,10.3
2022-09-20T19:36:40.330Z,10.3
2022-09-20T19:39:06.075Z,10.2
2022-09-20T19:50:04.170Z,9.9
2022-09-20T19:57:21.132Z,9.8
2022-09-20T20:01:00.023Z,9.7
2022-09-20T20:08:18.643Z,9.6
